Decoded Metar for LFLY (LYON BRON in FRANCE) (IATA:LYN) | Meteo·Mobile Aviation Weather
aviador You're here:

LFLY Decoded Metar

LYON BRON in FRANCE
Report Time2019-07-21 17:00:00
UTC Time2019-07-21 17:11:53
Flight Rules vfr VFR
Wind020° at 05 kt
W.Decomp.*RWY 34: 3.8 kt HW 3.2 kt RCW
Visibility9999 m
Phenomena:N/A
Clouds:N/A
Expected CloudBase > 6,000 ft AGL from Temp-Dew spread
CeilingNone
Temp32°C (ISA +18)
Dew Point17°C (41% RH)
Heat Index32.5°C
QNH1020 hPa
Density Alt2,772 ft
Elevation659 ft
Report Wrong Elevation
Raw Report
METAR LFLY 211700Z AUTO 02005KT 340V080 CAVOK 32/17 Q1020 NOSIG=

Extra information for LFLY:More info

Metar Taf Metar & Taf Last 4 Metars F.Rules Stats Wind Profile Meteogram Temp Stats Airport Information Weather charts Add Link Nearby VenuesMetar ALERT Operation Metar Decoded Social comments